sensor_id;sensor_type;location;lat;lon;timestamp;P1;durP1;ratioP1;P2;durP2;ratioP2
55633;SDS011;41504;53.162;6.788;2022-11-25T00:01:15;11.75;;;3.40;;
55633;SDS011;41504;53.162;6.788;2022-11-25T00:03:46;13.77;;;3.65;;
55633;SDS011;41504;53.162;6.788;2022-11-25T00:06:19;17.00;;;3.75;;
55633;SDS011;41504;53.162;6.788;2022-11-25T00:08:50;14.63;;;3.67;;
55633;SDS011;41504;53.162;6.788;2022-11-25T00:11:27;13.15;;;3.92;;
55633;SDS011;41504;53.162;6.788;2022-11-25T00:13:54;15.07;;;4.15;;
55633;SDS011;41504;53.162;6.788;2022-11-25T00:16:21;13.60;;;3.78;;
55633;SDS011;41504;53.162;6.788;2022-11-25T00:18:49;15.07;;;3.88;;
55633;SDS011;41504;53.162;6.788;2022-11-25T00:21:17;14.77;;;3.80;;
55633;SDS011;41504;53.162;6.788;2022-11-25T00:23:49;13.30;;;4.05;;
55633;SDS011;41504;53.162;6.788;2022-11-25T00:26:16;14.32;;;3.80;;
55633;SDS011;41504;53.162;6.788;2022-11-25T00:28:43;11.02;;;3.95;;
55633;SDS011;41504;53.162;6.788;2022-11-25T00:31:13;17.73;;;4.18;;
55633;SDS011;41504;53.162;6.788;2022-11-25T00:33:47;13.52;;;4.25;;
55633;SDS011;41504;53.162;6.788;2022-11-25T00:36:20;15.15;;;3.90;;
55633;SDS011;41504;53.162;6.788;2022-11-25T00:38:59;15.07;;;3.90;;
55633;SDS011;41504;53.162;6.788;2022-11-25T00:41:26;13.18;;;4.25;;
55633;SDS011;41504;53.162;6.788;2022-11-25T00:44:13;12.05;;;4.28;;
55633;SDS011;41504;53.162;6.788;2022-11-25T00:46:59;16.63;;;4.20;;
55633;SDS011;41504;53.162;6.788;2022-11-25T00:49:35;11.63;;;4.05;;
55633;SDS011;41504;53.162;6.788;2022-11-25T00:52:05;12.38;;;3.90;;
55633;SDS011;41504;53.162;6.788;2022-11-25T00:54:31;15.82;;;3.67;;
55633;SDS011;41504;53.162;6.788;2022-11-25T00:56:57;18.23;;;4.78;;
55633;SDS011;41504;53.162;6.788;2022-11-25T00:59:23;13.23;;;4.20;;
55633;SDS011;41504;53.162;6.788;2022-11-25T01:01:49;15.75;;;4.03;;
55633;SDS011;41504;53.162;6.788;2022-11-25T01:04:14;18.17;;;3.97;;
55633;SDS011;41504;53.162;6.788;2022-11-25T01:06:40;13.50;;;4.20;;
55633;SDS011;41504;53.162;6.788;2022-11-25T01:09:07;12.88;;;3.85;;
55633;SDS011;41504;53.162;6.788;2022-11-25T01:11:33;16.98;;;4.05;;
55633;SDS011;41504;53.162;6.788;2022-11-25T01:13:59;13.98;;;4.05;;
55633;SDS011;41504;53.162;6.788;2022-11-25T01:16:25;15.02;;;4.00;;
55633;SDS011;41504;53.162;6.788;2022-11-25T01:18:51;11.57;;;3.80;;
55633;SDS011;41504;53.162;6.788;2022-11-25T01:21:18;14.98;;;4.10;;
55633;SDS011;41504;53.162;6.788;2022-11-25T01:23:46;15.32;;;4.05;;
55633;SDS011;41504;53.162;6.788;2022-11-25T01:26:14;13.65;;;3.83;;
55633;SDS011;41504;53.162;6.788;2022-11-25T01:28:43;14.93;;;4.10;;
55633;SDS011;41504;53.162;6.788;2022-11-25T01:31:14;15.02;;;3.90;;
55633;SDS011;41504;53.162;6.788;2022-11-25T01:33:42;16.83;;;4.20;;
55633;SDS011;41504;53.162;6.788;2022-11-25T01:36:10;11.10;;;3.70;;
55633;SDS011;41504;53.162;6.788;2022-11-25T01:38:40;13.98;;;3.70;;
55633;SDS011;41504;53.162;6.788;2022-11-25T01:41:07;14.00;;;3.92;;
55633;SDS011;41504;53.162;6.788;2022-11-25T01:43:34;11.93;;;3.90;;
55633;SDS011;41504;53.162;6.788;2022-11-25T01:51:39;11.60;;;3.75;;
55633;SDS011;41504;53.162;6.788;2022-11-25T01:54:26;13.88;;;3.83;;
55633;SDS011;41504;53.162;6.788;2022-11-25T01:57:00;13.18;;;3.88;;
55633;SDS011;41504;53.162;6.788;2022-11-25T01:59:30;14.43;;;3.67;;
55633;SDS011;41504;53.162;6.788;2022-11-25T02:01:59;14.30;;;3.65;;
55633;SDS011;41504;53.162;6.788;2022-11-25T02:04:27;13.73;;;3.80;;
55633;SDS011;41504;53.162;6.788;2022-11-25T02:06:58;16.73;;;4.05;;
55633;SDS011;41504;53.162;6.788;2022-11-25T02:09:29;12.50;;;3.55;;
55633;SDS011;41504;53.162;6.788;2022-11-25T02:11:55;12.93;;;4.15;;
55633;SDS011;41504;53.162;6.788;2022-11-25T02:14:22;15.10;;;4.47;;
55633;SDS011;41504;53.162;6.788;2022-11-25T02:16:49;11.23;;;3.60;;
55633;SDS011;41504;53.162;6.788;2022-11-25T02:22:18;13.75;;;3.65;;
55633;SDS011;41504;53.162;6.788;2022-11-25T02:24:53;12.15;;;4.10;;
55633;SDS011;41504;53.162;6.788;2022-11-25T02:27:21;13.63;;;4.50;;
55633;SDS011;41504;53.162;6.788;2022-11-25T02:29:47;16.33;;;4.53;;
55633;SDS011;41504;53.162;6.788;2022-11-25T02:32:14;14.88;;;3.55;;
55633;SDS011;41504;53.162;6.788;2022-11-25T02:34:46;13.60;;;3.67;;
55633;SDS011;41504;53.162;6.788;2022-11-25T02:37:13;12.57;;;3.42;;
55633;SDS011;41504;53.162;6.788;2022-11-25T02:39:41;13.15;;;4.00;;
55633;SDS011;41504;53.162;6.788;2022-11-25T02:42:07;12.90;;;3.63;;
55633;SDS011;41504;53.162;6.788;2022-11-25T02:44:33;15.70;;;3.88;;
55633;SDS011;41504;53.162;6.788;2022-11-25T02:46:58;11.80;;;3.38;;
55633;SDS011;41504;53.162;6.788;2022-11-25T02:49:24;15.57;;;4.35;;
55633;SDS011;41504;53.162;6.788;2022-11-25T02:51:50;11.85;;;3.88;;
55633;SDS011;41504;53.162;6.788;2022-11-25T02:54:16;15.85;;;4.47;;
55633;SDS011;41504;53.162;6.788;2022-11-25T02:56:41;12.32;;;3.75;;
55633;SDS011;41504;53.162;6.788;2022-11-25T02:59:08;11.60;;;3.60;;
55633;SDS011;41504;53.162;6.788;2022-11-25T03:01:34;13.98;;;4.03;;
55633;SDS011;41504;53.162;6.788;2022-11-25T03:04:02;16.25;;;4.03;;
55633;SDS011;41504;53.162;6.788;2022-11-25T03:06:28;12.70;;;3.97;;
55633;SDS011;41504;53.162;6.788;2022-11-25T03:08:54;18.85;;;4.25;;
55633;SDS011;41504;53.162;6.788;2022-11-25T03:11:23;14.35;;;3.65;;
55633;SDS011;41504;53.162;6.788;2022-11-25T03:14:08;13.05;;;3.70;;
55633;SDS011;41504;53.162;6.788;2022-11-25T03:16:34;11.77;;;4.13;;
55633;SDS011;41504;53.162;6.788;2022-11-25T03:19:00;14.90;;;3.55;;
55633;SDS011;41504;53.162;6.788;2022-11-25T03:21:26;12.85;;;3.47;;
55633;SDS011;41504;53.162;6.788;2022-11-25T03:23:51;14.07;;;4.25;;
55633;SDS011;41504;53.162;6.788;2022-11-25T03:26:17;16.90;;;3.80;;
55633;SDS011;41504;53.162;6.788;2022-11-25T03:28:43;14.73;;;3.90;;
55633;SDS011;41504;53.162;6.788;2022-11-25T03:31:09;14.38;;;4.45;;
55633;SDS011;41504;53.162;6.788;2022-11-25T03:33:38;11.30;;;3.53;;
55633;SDS011;41504;53.162;6.788;2022-11-25T03:36:04;12.73;;;4.10;;
55633;SDS011;41504;53.162;6.788;2022-11-25T03:38:30;14.02;;;4.50;;
55633;SDS011;41504;53.162;6.788;2022-11-25T03:40:58;17.63;;;4.55;;
55633;SDS011;41504;53.162;6.788;2022-11-25T03:43:23;11.18;;;3.70;;
55633;SDS011;41504;53.162;6.788;2022-11-25T03:45:49;15.20;;;4.03;;
55633;SDS011;41504;53.162;6.788;2022-11-25T03:48:15;14.07;;;4.07;;
55633;SDS011;41504;53.162;6.788;2022-11-25T03:50:41;10.93;;;3.67;;
55633;SDS011;41504;53.162;6.788;2022-11-25T03:53:08;14.43;;;4.30;;
55633;SDS011;41504;53.162;6.788;2022-11-25T03:55:34;13.60;;;4.03;;
55633;SDS011;41504;53.162;6.788;2022-11-25T03:57:59;11.60;;;4.10;;
55633;SDS011;41504;53.162;6.788;2022-11-25T04:00:25;14.55;;;4.30;;
55633;SDS011;41504;53.162;6.788;2022-11-25T04:02:51;17.63;;;4.90;;
55633;SDS011;41504;53.162;6.788;2022-11-25T04:05:16;17.23;;;4.65;;
55633;SDS011;41504;53.162;6.788;2022-11-25T04:07:42;13.25;;;4.57;;
55633;SDS011;41504;53.162;6.788;2022-11-25T04:10:11;13.30;;;4.70;;
55633;SDS011;41504;53.162;6.788;2022-11-25T04:12:37;15.15;;;4.47;;
55633;SDS011;41504;53.162;6.788;2022-11-25T04:15:12;16.95;;;5.22;;
55633;SDS011;41504;53.162;6.788;2022-11-25T04:17:41;14.23;;;4.75;;
55633;SDS011;41504;53.162;6.788;2022-11-25T04:20:07;14.65;;;4.78;;
55633;SDS011;41504;53.162;6.788;2022-11-25T04:22:33;16.75;;;5.32;;
55633;SDS011;41504;53.162;6.788;2022-11-25T04:24:59;15.48;;;4.88;;
55633;SDS011;41504;53.162;6.788;2022-11-25T04:27:25;18.10;;;4.85;;
55633;SDS011;41504;53.162;6.788;2022-11-25T04:29:51;19.70;;;5.03;;
55633;SDS011;41504;53.162;6.788;2022-11-25T04:32:17;13.65;;;5.05;;
55633;SDS011;41504;53.162;6.788;2022-11-25T04:34:43;14.20;;;5.07;;
55633;SDS011;41504;53.162;6.788;2022-11-25T04:37:08;14.90;;;4.78;;
55633;SDS011;41504;53.162;6.788;2022-11-25T04:39:34;14.93;;;4.95;;
55633;SDS011;41504;53.162;6.788;2022-11-25T04:42:00;16.70;;;4.85;;
55633;SDS011;41504;53.162;6.788;2022-11-25T04:44:44;15.20;;;5.07;;
55633;SDS011;41504;53.162;6.788;2022-11-25T04:47:10;18.63;;;5.50;;
55633;SDS011;41504;53.162;6.788;2022-11-25T04:49:35;18.75;;;5.13;;
55633;SDS011;41504;53.162;6.788;2022-11-25T04:52:01;13.75;;;4.60;;
55633;SDS011;41504;53.162;6.788;2022-11-25T04:54:27;10.90;;;5.03;;
55633;SDS011;41504;53.162;6.788;2022-11-25T04:56:52;17.58;;;5.07;;
55633;SDS011;41504;53.162;6.788;2022-11-25T04:59:18;16.73;;;5.20;;
55633;SDS011;41504;53.162;6.788;2022-11-25T05:02:02;15.15;;;4.72;;
55633;SDS011;41504;53.162;6.788;2022-11-25T05:04:28;14.55;;;4.78;;
55633;SDS011;41504;53.162;6.788;2022-11-25T05:06:54;15.10;;;5.07;;
55633;SDS011;41504;53.162;6.788;2022-11-25T05:09:20;15.60;;;5.30;;
55633;SDS011;41504;53.162;6.788;2022-11-25T05:11:45;14.23;;;4.82;;
55633;SDS011;41504;53.162;6.788;2022-11-25T05:14:11;14.95;;;4.88;;
55633;SDS011;41504;53.162;6.788;2022-11-25T05:16:37;14.90;;;5.43;;
55633;SDS011;41504;53.162;6.788;2022-11-25T05:19:03;15.75;;;4.60;;
55633;SDS011;41504;53.162;6.788;2022-11-25T05:21:29;15.00;;;5.22;;
55633;SDS011;41504;53.162;6.788;2022-11-25T05:23:54;13.90;;;5.03;;
55633;SDS011;41504;53.162;6.788;2022-11-25T05:26:20;17.83;;;5.82;;
55633;SDS011;41504;53.162;6.788;2022-11-25T05:28:46;16.98;;;6.15;;
55633;SDS011;41504;53.162;6.788;2022-11-25T05:31:11;15.40;;;5.05;;
55633;SDS011;41504;53.162;6.788;2022-11-25T05:33:37;15.93;;;5.10;;
55633;SDS011;41504;53.162;6.788;2022-11-25T05:36:03;16.52;;;5.35;;
55633;SDS011;41504;53.162;6.788;2022-11-25T05:38:31;15.98;;;5.97;;
55633;SDS011;41504;53.162;6.788;2022-11-25T05:41:01;17.10;;;5.88;;
55633;SDS011;41504;53.162;6.788;2022-11-25T05:43:28;12.70;;;5.75;;
55633;SDS011;41504;53.162;6.788;2022-11-25T05:45:54;16.58;;;5.45;;
55633;SDS011;41504;53.162;6.788;2022-11-25T05:48:20;14.48;;;5.45;;
55633;SDS011;41504;53.162;6.788;2022-11-25T05:50:46;18.40;;;5.68;;
55633;SDS011;41504;53.162;6.788;2022-11-25T05:53:12;17.35;;;6.28;;
55633;SDS011;41504;53.162;6.788;2022-11-25T05:55:38;18.63;;;5.63;;
55633;SDS011;41504;53.162;6.788;2022-11-25T05:58:04;13.60;;;5.30;;
55633;SDS011;41504;53.162;6.788;2022-11-25T06:00:33;18.48;;;5.43;;
55633;SDS011;41504;53.162;6.788;2022-11-25T06:02:59;16.25;;;5.53;;
55633;SDS011;41504;53.162;6.788;2022-11-25T06:05:25;17.70;;;5.70;;
55633;SDS011;41504;53.162;6.788;2022-11-25T06:07:50;14.85;;;5.57;;
55633;SDS011;41504;53.162;6.788;2022-11-25T06:10:19;18.65;;;5.82;;
55633;SDS011;41504;53.162;6.788;2022-11-25T06:12:45;16.70;;;5.63;;
55633;SDS011;41504;53.162;6.788;2022-11-25T06:15:11;13.77;;;5.40;;
55633;SDS011;41504;53.162;6.788;2022-11-25T06:17:36;17.63;;;6.28;;
55633;SDS011;41504;53.162;6.788;2022-11-25T06:20:03;15.07;;;6.45;;
55633;SDS011;41504;53.162;6.788;2022-11-25T06:22:39;16.25;;;6.47;;
55633;SDS011;41504;53.162;6.788;2022-11-25T06:25:04;19.08;;;6.97;;
55633;SDS011;41504;53.162;6.788;2022-11-25T06:27:33;19.40;;;6.40;;
55633;SDS011;41504;53.162;6.788;2022-11-25T06:29:59;19.30;;;6.50;;
55633;SDS011;41504;53.162;6.788;2022-11-25T06:32:25;19.98;;;6.93;;
55633;SDS011;41504;53.162;6.788;2022-11-25T06:34:50;17.88;;;6.82;;
55633;SDS011;41504;53.162;6.788;2022-11-25T06:37:16;15.27;;;6.57;;
55633;SDS011;41504;53.162;6.788;2022-11-25T06:39:42;18.77;;;7.45;;
55633;SDS011;41504;53.162;6.788;2022-11-25T06:42:08;22.65;;;7.20;;
55633;SDS011;41504;53.162;6.788;2022-11-25T06:44:34;18.25;;;7.28;;
55633;SDS011;41504;53.162;6.788;2022-11-25T06:46:59;16.75;;;7.15;;
55633;SDS011;41504;53.162;6.788;2022-11-25T06:49:25;16.90;;;6.75;;
55633;SDS011;41504;53.162;6.788;2022-11-25T06:51:52;15.52;;;6.97;;
55633;SDS011;41504;53.162;6.788;2022-11-25T06:54:18;18.33;;;7.55;;
55633;SDS011;41504;53.162;6.788;2022-11-25T06:56:43;16.45;;;6.65;;
55633;SDS011;41504;53.162;6.788;2022-11-25T06:59:15;20.77;;;7.22;;
55633;SDS011;41504;53.162;6.788;2022-11-25T07:01:41;20.25;;;7.53;;
55633;SDS011;41504;53.162;6.788;2022-11-25T07:04:07;15.13;;;7.40;;
55633;SDS011;41504;53.162;6.788;2022-11-25T07:06:33;15.75;;;6.85;;
55633;SDS011;41504;53.162;6.788;2022-11-25T07:08:59;15.85;;;6.88;;
55633;SDS011;41504;53.162;6.788;2022-11-25T07:11:34;16.35;;;6.85;;
55633;SDS011;41504;53.162;6.788;2022-11-25T07:14:04;17.25;;;6.72;;
55633;SDS011;41504;53.162;6.788;2022-11-25T07:16:38;15.13;;;7.13;;
55633;SDS011;41504;53.162;6.788;2022-11-25T07:19:04;18.77;;;7.28;;
55633;SDS011;41504;53.162;6.788;2022-11-25T07:21:32;18.48;;;6.72;;
55633;SDS011;41504;53.162;6.788;2022-11-25T07:24:01;17.88;;;6.55;;
55633;SDS011;41504;53.162;6.788;2022-11-25T07:26:30;14.65;;;6.22;;
55633;SDS011;41504;53.162;6.788;2022-11-25T07:28:58;13.68;;;5.78;;
55633;SDS011;41504;53.162;6.788;2022-11-25T07:34:01;13.02;;;5.65;;
55633;SDS011;41504;53.162;6.788;2022-11-25T07:36:32;15.23;;;5.88;;
55633;SDS011;41504;53.162;6.788;2022-11-25T07:39:00;15.80;;;5.97;;
55633;SDS011;41504;53.162;6.788;2022-11-25T07:41:28;14.93;;;5.93;;
55633;SDS011;41504;53.162;6.788;2022-11-25T07:43:55;13.10;;;5.75;;
55633;SDS011;41504;53.162;6.788;2022-11-25T07:46:24;14.45;;;5.32;;
55633;SDS011;41504;53.162;6.788;2022-11-25T07:49:07;11.63;;;5.40;;
55633;SDS011;41504;53.162;6.788;2022-11-25T07:51:41;13.05;;;5.10;;
55633;SDS011;41504;53.162;6.788;2022-11-25T07:54:10;15.35;;;5.53;;
55633;SDS011;41504;53.162;6.788;2022-11-25T07:56:37;15.35;;;5.88;;
55633;SDS011;41504;53.162;6.788;2022-11-25T07:59:09;11.43;;;5.38;;
55633;SDS011;41504;53.162;6.788;2022-11-25T08:01:41;12.05;;;4.93;;
55633;SDS011;41504;53.162;6.788;2022-11-25T08:04:07;10.82;;;4.78;;
55633;SDS011;41504;53.162;6.788;2022-11-25T08:06:39;14.60;;;5.55;;
55633;SDS011;41504;53.162;6.788;2022-11-25T08:09:10;15.10;;;4.90;;
55633;SDS011;41504;53.162;6.788;2022-11-25T08:11:39;14.13;;;4.95;;
55633;SDS011;41504;53.162;6.788;2022-11-25T08:14:06;10.55;;;4.63;;
55633;SDS011;41504;53.162;6.788;2022-11-25T08:16:32;15.27;;;4.97;;
55633;SDS011;41504;53.162;6.788;2022-11-25T08:18:59;12.10;;;4.35;;
55633;SDS011;41504;53.162;6.788;2022-11-25T08:21:27;11.27;;;4.45;;
55633;SDS011;41504;53.162;6.788;2022-11-25T08:23:53;11.57;;;4.32;;
55633;SDS011;41504;53.162;6.788;2022-11-25T08:26:29;13.30;;;4.53;;
55633;SDS011;41504;53.162;6.788;2022-11-25T08:28:58;12.48;;;4.60;;
55633;SDS011;41504;53.162;6.788;2022-11-25T08:31:28;13.63;;;4.25;;
55633;SDS011;41504;53.162;6.788;2022-11-25T08:33:57;7.47;;;3.53;;
55633;SDS011;41504;53.162;6.788;2022-11-25T08:36:24;10.20;;;3.50;;
55633;SDS011;41504;53.162;6.788;2022-11-25T08:38:51;12.48;;;3.97;;
55633;SDS011;41504;53.162;6.788;2022-11-25T08:41:20;13.18;;;3.95;;
55633;SDS011;41504;53.162;6.788;2022-11-25T08:43:50;10.50;;;3.72;;
55633;SDS011;41504;53.162;6.788;2022-11-25T08:46:17;11.65;;;3.83;;
55633;SDS011;41504;53.162;6.788;2022-11-25T08:48:45;11.27;;;4.03;;
55633;SDS011;41504;53.162;6.788;2022-11-25T08:51:12;9.60;;;3.85;;
55633;SDS011;41504;53.162;6.788;2022-11-25T08:53:49;12.30;;;3.70;;
55633;SDS011;41504;53.162;6.788;2022-11-25T08:56:16;10.50;;;3.83;;
55633;SDS011;41504;53.162;6.788;2022-11-25T08:58:42;10.77;;;4.10;;
55633;SDS011;41504;53.162;6.788;2022-11-25T09:01:09;10.60;;;3.65;;
55633;SDS011;41504;53.162;6.788;2022-11-25T09:03:41;9.98;;;3.85;;
55633;SDS011;41504;53.162;6.788;2022-11-25T09:06:12;11.52;;;4.32;;
55633;SDS011;41504;53.162;6.788;2022-11-25T09:08:39;10.65;;;4.00;;
55633;SDS011;41504;53.162;6.788;2022-11-25T09:11:06;11.65;;;4.00;;
55633;SDS011;41504;53.162;6.788;2022-11-25T09:13:33;13.45;;;4.57;;
55633;SDS011;41504;53.162;6.788;2022-11-25T09:16:02;11.57;;;3.97;;
55633;SDS011;41504;53.162;6.788;2022-11-25T09:18:28;13.02;;;3.75;;
55633;SDS011;41504;53.162;6.788;2022-11-25T09:21:05;11.27;;;3.97;;
55633;SDS011;41504;53.162;6.788;2022-11-25T09:23:38;10.32;;;4.28;;
55633;SDS011;41504;53.162;6.788;2022-11-25T09:26:04;12.88;;;4.25;;
55633;SDS011;41504;53.162;6.788;2022-11-25T09:28:31;13.38;;;4.47;;
55633;SDS011;41504;53.162;6.788;2022-11-25T09:30:58;11.18;;;4.07;;
55633;SDS011;41504;53.162;6.788;2022-11-25T09:33:23;12.48;;;3.92;;
55633;SDS011;41504;53.162;6.788;2022-11-25T09:35:49;11.40;;;4.63;;
55633;SDS011;41504;53.162;6.788;2022-11-25T09:38:15;12.20;;;4.25;;
55633;SDS011;41504;53.162;6.788;2022-11-25T09:40:47;10.63;;;4.28;;
55633;SDS011;41504;53.162;6.788;2022-11-25T09:43:30;10.13;;;4.40;;
55633;SDS011;41504;53.162;6.788;2022-11-25T09:54:58;11.50;;;5.18;;
55633;SDS011;41504;53.162;6.788;2022-11-25T09:57:35;10.80;;;4.53;;
55633;SDS011;41504;53.162;6.788;2022-11-25T10:05:33;12.25;;;4.90;;
55633;SDS011;41504;53.162;6.788;2022-11-25T10:08:07;11.85;;;4.43;;
55633;SDS011;41504;53.162;6.788;2022-11-25T10:10:47;13.30;;;4.35;;
55633;SDS011;41504;53.162;6.788;2022-11-25T10:14:01;8.65;;;3.70;;
55633;SDS011;41504;53.162;6.788;2022-11-25T10:19:00;10.20;;;3.55;;
55633;SDS011;41504;53.162;6.788;2022-11-25T10:21:39;10.80;;;3.70;;
55633;SDS011;41504;53.162;6.788;2022-11-25T10:24:11;9.90;;;4.20;;
55633;SDS011;41504;53.162;6.788;2022-11-25T10:26:42;10.55;;;3.85;;
55633;SDS011;41504;53.162;6.788;2022-11-25T10:29:19;13.63;;;4.30;;
55633;SDS011;41504;53.162;6.788;2022-11-25T10:34:52;9.63;;;4.00;;
55633;SDS011;41504;53.162;6.788;2022-11-25T10:37:28;12.45;;;3.85;;
55633;SDS011;41504;53.162;6.788;2022-11-25T10:39:59;9.65;;;3.92;;
55633;SDS011;41504;53.162;6.788;2022-11-25T10:42:25;9.75;;;3.97;;
55633;SDS011;41504;53.162;6.788;2022-11-25T10:44:53;12.82;;;4.30;;
55633;SDS011;41504;53.162;6.788;2022-11-25T10:50:21;9.77;;;3.95;;
55633;SDS011;41504;53.162;6.788;2022-11-25T10:53:14;11.05;;;4.22;;
55633;SDS011;41504;53.162;6.788;2022-11-25T10:58:36;12.10;;;3.75;;
55633;SDS011;41504;53.162;6.788;2022-11-25T11:01:04;10.20;;;3.72;;
55633;SDS011;41504;53.162;6.788;2022-11-25T11:03:33;11.40;;;3.55;;
55633;SDS011;41504;53.162;6.788;2022-11-25T11:05:59;12.52;;;4.72;;
55633;SDS011;41504;53.162;6.788;2022-11-25T11:08:26;13.25;;;4.38;;
55633;SDS011;41504;53.162;6.788;2022-11-25T11:13:46;12.40;;;4.57;;
55633;SDS011;41504;53.162;6.788;2022-11-25T11:16:32;11.15;;;3.53;;
55633;SDS011;41504;53.162;6.788;2022-11-25T11:19:03;9.52;;;4.28;;
55633;SDS011;41504;53.162;6.788;2022-11-25T11:21:30;8.55;;;3.50;;
55633;SDS011;41504;53.162;6.788;2022-11-25T11:23:58;9.30;;;3.80;;
55633;SDS011;41504;53.162;6.788;2022-11-25T11:26:29;13.10;;;3.70;;
55633;SDS011;41504;53.162;6.788;2022-11-25T11:29:13;8.63;;;3.50;;
55633;SDS011;41504;53.162;6.788;2022-11-25T11:34:23;11.95;;;3.53;;
55633;SDS011;41504;53.162;6.788;2022-11-25T11:50:44;10.35;;;3.97;;
55633;SDS011;41504;53.162;6.788;2022-11-25T11:53:17;14.05;;;3.55;;
55633;SDS011;41504;53.162;6.788;2022-11-25T11:56:11;10.55;;;3.33;;
55633;SDS011;41504;53.162;6.788;2022-11-25T11:58:52;10.02;;;2.80;;
55633;SDS011;41504;53.162;6.788;2022-11-25T12:06:59;9.95;;;2.88;;
55633;SDS011;41504;53.162;6.788;2022-11-25T12:09:37;12.52;;;3.17;;
55633;SDS011;41504;53.162;6.788;2022-11-25T12:12:14;11.60;;;2.70;;
55633;SDS011;41504;53.162;6.788;2022-11-25T12:14:50;10.30;;;2.50;;
55633;SDS011;41504;53.162;6.788;2022-11-25T12:17:29;11.43;;;3.45;;
55633;SDS011;41504;53.162;6.788;2022-11-25T12:22:57;9.45;;;2.90;;
55633;SDS011;41504;53.162;6.788;2022-11-25T12:25:35;11.88;;;2.75;;
55633;SDS011;41504;53.162;6.788;2022-11-25T12:30:44;10.82;;;3.10;;
55633;SDS011;41504;53.162;6.788;2022-11-25T12:35:57;12.82;;;3.10;;
55633;SDS011;41504;53.162;6.788;2022-11-25T12:38:37;11.10;;;2.95;;
55633;SDS011;41504;53.162;6.788;2022-11-25T12:46:46;12.77;;;2.90;;
55633;SDS011;41504;53.162;6.788;2022-11-25T12:49:24;12.27;;;2.63;;
55633;SDS011;41504;53.162;6.788;2022-11-25T13:16:54;13.10;;;2.40;;
55633;SDS011;41504;53.162;6.788;2022-11-25T13:19:21;12.57;;;2.63;;
55633;SDS011;41504;53.162;6.788;2022-11-25T13:22:00;12.20;;;2.70;;
55633;SDS011;41504;53.162;6.788;2022-11-25T13:30:00;13.68;;;3.15;;
55633;SDS011;41504;53.162;6.788;2022-11-25T13:32:27;13.30;;;2.90;;
55633;SDS011;41504;53.162;6.788;2022-11-25T13:37:46;14.70;;;3.08;;
55633;SDS011;41504;53.162;6.788;2022-11-25T13:42:46;15.07;;;3.72;;
55633;SDS011;41504;53.162;6.788;2022-11-25T13:48:03;14.20;;;2.80;;
55633;SDS011;41504;53.162;6.788;2022-11-25T13:50:42;11.13;;;2.72;;
55633;SDS011;41504;53.162;6.788;2022-11-25T13:53:19;14.30;;;2.90;;
55633;SDS011;41504;53.162;6.788;2022-11-25T13:55:52;12.48;;;2.80;;
55633;SDS011;41504;53.162;6.788;2022-11-25T14:01:35;11.70;;;2.53;;
55633;SDS011;41504;53.162;6.788;2022-11-25T14:04:32;11.32;;;2.58;;
55633;SDS011;41504;53.162;6.788;2022-11-25T14:12:51;11.88;;;3.08;;
55633;SDS011;41504;53.162;6.788;2022-11-25T14:16:03;13.05;;;2.60;;
55633;SDS011;41504;53.162;6.788;2022-11-25T14:27:16;14.90;;;5.40;;
55633;SDS011;41504;53.162;6.788;2022-11-25T14:35:04;16.77;;;5.25;;
55633;SDS011;41504;53.162;6.788;2022-11-25T14:38:18;15.27;;;3.28;;
55633;SDS011;41504;53.162;6.788;2022-11-25T14:40:28;15.02;;;3.63;;
55633;SDS011;41504;53.162;6.788;2022-11-25T14:43:08;13.90;;;2.88;;
55633;SDS011;41504;53.162;6.788;2022-11-25T14:45:39;33.50;;;18.08;;
55633;SDS011;41504;53.162;6.788;2022-11-25T14:48:18;19.63;;;7.80;;
55633;SDS011;41504;53.162;6.788;2022-11-25T14:50:58;15.35;;;5.75;;
55633;SDS011;41504;53.162;6.788;2022-11-25T14:53:26;17.92;;;5.28;;
55633;SDS011;41504;53.162;6.788;2022-11-25T14:55:54;18.77;;;7.55;;
55633;SDS011;41504;53.162;6.788;2022-11-25T14:58:24;25.33;;;13.98;;
55633;SDS011;41504;53.162;6.788;2022-11-25T15:00:54;34.20;;;15.77;;
55633;SDS011;41504;53.162;6.788;2022-11-25T15:03:24;20.23;;;6.93;;
55633;SDS011;41504;53.162;6.788;2022-11-25T15:05:54;14.80;;;4.93;;
55633;SDS011;41504;53.162;6.788;2022-11-25T15:08:21;13.85;;;3.70;;
55633;SDS011;41504;53.162;6.788;2022-11-25T15:16:15;15.75;;;3.13;;
55633;SDS011;41504;53.162;6.788;2022-11-25T15:18:49;12.18;;;2.97;;
55633;SDS011;41504;53.162;6.788;2022-11-25T15:21:26;16.50;;;3.45;;
55633;SDS011;41504;53.162;6.788;2022-11-25T15:23:54;10.20;;;2.90;;
55633;SDS011;41504;53.162;6.788;2022-11-25T15:26:21;14.30;;;4.03;;
55633;SDS011;41504;53.162;6.788;2022-11-25T15:29:16;13.90;;;2.92;;
55633;SDS011;41504;53.162;6.788;2022-11-25T15:31:41;19.05;;;3.47;;
55633;SDS011;41504;53.162;6.788;2022-11-25T15:34:09;18.98;;;4.68;;
55633;SDS011;41504;53.162;6.788;2022-11-25T15:36:37;16.88;;;3.38;;
55633;SDS011;41504;53.162;6.788;2022-11-25T15:41:46;16.75;;;3.83;;
55633;SDS011;41504;53.162;6.788;2022-11-25T15:44:19;15.10;;;3.28;;
55633;SDS011;41504;53.162;6.788;2022-11-25T15:49:19;19.25;;;5.38;;
55633;SDS011;41504;53.162;6.788;2022-11-25T15:54:50;19.63;;;8.80;;
55633;SDS011;41504;53.162;6.788;2022-11-25T16:00:12;14.27;;;3.45;;
55633;SDS011;41504;53.162;6.788;2022-11-25T16:07:39;21.70;;;9.00;;
55633;SDS011;41504;53.162;6.788;2022-11-25T16:21:17;17.60;;;4.85;;
55633;SDS011;41504;53.162;6.788;2022-11-25T16:23:47;13.95;;;4.50;;
55633;SDS011;41504;53.162;6.788;2022-11-25T16:26:50;21.65;;;6.57;;
55633;SDS011;41504;53.162;6.788;2022-11-25T16:29:17;17.15;;;4.80;;
55633;SDS011;41504;53.162;6.788;2022-11-25T16:31:46;17.92;;;4.20;;
55633;SDS011;41504;53.162;6.788;2022-11-25T16:34:13;18.35;;;4.68;;
55633;SDS011;41504;53.162;6.788;2022-11-25T16:36:41;13.25;;;3.83;;
55633;SDS011;41504;53.162;6.788;2022-11-25T16:39:07;18.02;;;4.13;;
55633;SDS011;41504;53.162;6.788;2022-11-25T16:41:33;17.15;;;6.05;;
55633;SDS011;41504;53.162;6.788;2022-11-25T16:44:00;18.48;;;6.90;;
55633;SDS011;41504;53.162;6.788;2022-11-25T16:46:28;16.85;;;3.17;;
55633;SDS011;41504;53.162;6.788;2022-11-25T16:48:54;19.40;;;5.07;;
55633;SDS011;41504;53.162;6.788;2022-11-25T16:51:20;15.07;;;3.85;;
55633;SDS011;41504;53.162;6.788;2022-11-25T16:53:50;12.57;;;5.53;;
55633;SDS011;41504;53.162;6.788;2022-11-25T16:56:26;18.20;;;6.38;;
55633;SDS011;41504;53.162;6.788;2022-11-25T16:58:52;13.45;;;4.20;;
55633;SDS011;41504;53.162;6.788;2022-11-25T17:01:22;15.90;;;5.55;;
55633;SDS011;41504;53.162;6.788;2022-11-25T17:03:49;17.13;;;4.90;;
55633;SDS011;41504;53.162;6.788;2022-11-25T17:06:16;15.07;;;5.43;;
55633;SDS011;41504;53.162;6.788;2022-11-25T17:08:45;17.60;;;4.03;;
55633;SDS011;41504;53.162;6.788;2022-11-25T17:11:21;12.38;;;3.47;;
55633;SDS011;41504;53.162;6.788;2022-11-25T17:13:57;14.30;;;5.03;;
55633;SDS011;41504;53.162;6.788;2022-11-25T17:16:26;23.50;;;8.63;;
55633;SDS011;41504;53.162;6.788;2022-11-25T17:18:53;20.50;;;8.98;;
55633;SDS011;41504;53.162;6.788;2022-11-25T17:21:20;42.08;;;16.40;;
55633;SDS011;41504;53.162;6.788;2022-11-25T17:23:52;29.90;;;11.60;;
55633;SDS011;41504;53.162;6.788;2022-11-25T17:26:20;20.92;;;7.72;;
55633;SDS011;41504;53.162;6.788;2022-11-25T17:28:57;18.52;;;5.65;;
55633;SDS011;41504;53.162;6.788;2022-11-25T17:31:27;19.23;;;5.70;;
55633;SDS011;41504;53.162;6.788;2022-11-25T17:33:56;23.52;;;8.70;;
55633;SDS011;41504;53.162;6.788;2022-11-25T17:36:22;17.55;;;6.25;;
55633;SDS011;41504;53.162;6.788;2022-11-25T17:38:48;18.58;;;6.65;;
55633;SDS011;41504;53.162;6.788;2022-11-25T17:41:15;23.15;;;9.90;;